createdAt,value
2023-01-01T00:00:02.146Z,44.47
2023-01-01T00:02:37.997Z,39.25
2023-01-01T00:05:07.254Z,40.95
2023-01-01T00:07:36.726Z,50.38
2023-01-01T00:10:23.885Z,49.28
2023-01-01T00:15:20.103Z,40.42
2023-01-01T00:17:48.208Z,41.92
2023-01-01T00:20:17.536Z,40.95
2023-01-01T00:22:55.762Z,35.83
2023-01-01T00:25:24.758Z,35.63
2023-01-01T00:27:52.795Z,37.58
2023-01-01T00:30:21.093Z,36.08
2023-01-01T00:32:55.422Z,35.58
2023-01-01T00:35:24.749Z,36.45
2023-01-01T00:37:55.761Z,39.78
2023-01-01T00:40:23.942Z,40.53
2023-01-01T00:42:51.936Z,43.65
2023-01-01T00:45:22.369Z,42.85
2023-01-01T00:47:52.186Z,40.92
2023-01-01T00:50:20.791Z,37.50
2023-01-01T00:52:49.431Z,38.97
2023-01-01T00:55:19.021Z,35.97
2023-01-01T00:57:47.280Z,30.95
2023-01-01T01:00:19.102Z,28.50
2023-01-01T01:02:47.409Z,24.48
2023-01-01T01:05:15.613Z,18.65
2023-01-01T01:07:43.897Z,16.65
2023-01-01T01:10:12.665Z,15.70
2023-01-01T01:12:42.171Z,15.07
2023-01-01T01:15:11.515Z,13.88
2023-01-01T01:17:40.274Z,15.00
2023-01-01T01:20:09.182Z,16.85
2023-01-01T01:22:37.294Z,19.08
2023-01-01T01:25:06.257Z,16.63
2023-01-01T01:27:34.642Z,19.23
2023-01-01T01:30:05.020Z,18.50
2023-01-01T01:32:33.320Z,19.75
2023-01-01T01:35:01.612Z,21.63
2023-01-01T01:37:30.036Z,20.65
2023-01-01T01:39:58.342Z,22.45
2023-01-01T01:42:26.880Z,21.08
2023-01-01T01:44:57.902Z,22.25
2023-01-01T01:47:33.444Z,22.70
2023-01-01T01:50:07.412Z,21.50
2023-01-01T01:52:38.575Z,22.65
2023-01-01T01:55:09.298Z,21.40
2023-01-01T01:57:39.039Z,21.38
2023-01-01T02:00:11.482Z,20.20
2023-01-01T02:02:48.973Z,20.25
2023-01-01T02:05:19.428Z,20.95
2023-01-01T02:07:48.198Z,20.90
2023-01-01T02:10:16.584Z,20.40
2023-01-01T02:12:44.962Z,20.05
2023-01-01T02:15:13.473Z,19.73
2023-01-01T02:17:51.804Z,19.42
2023-01-01T02:20:38.002Z,20.63
2023-01-01T02:23:32.395Z,18.85
2023-01-01T02:26:24.873Z,20.33
2023-01-01T02:29:01.877Z,20.25
2023-01-01T02:31:35.005Z,19.60
2023-01-01T02:34:07.638Z,21.65
2023-01-01T02:36:41.039Z,20.33
2023-01-01T02:39:11.270Z,22.38
2023-01-01T02:41:42.423Z,19.92
2023-01-01T02:44:12.781Z,21.55
2023-01-01T02:46:41.071Z,20.13
2023-01-01T02:49:10.869Z,20.60
2023-01-01T02:51:52.501Z,21.27
2023-01-01T02:54:30.110Z,21.13
2023-01-01T02:57:06.779Z,20.73
2023-01-01T03:02:38.461Z,20.45
2023-01-01T03:05:15.277Z,21.30
2023-01-01T03:07:51.609Z,19.90
2023-01-01T03:10:25.285Z,19.48
2023-01-01T03:12:57.268Z,20.23
2023-01-01T03:15:31.288Z,20.55
2023-01-01T03:18:05.450Z,20.48
2023-01-01T03:20:36.557Z,20.75
2023-01-01T03:23:10.189Z,20.27
2023-01-01T03:25:42.996Z,21.02
2023-01-01T03:28:14.197Z,19.95
2023-01-01T03:30:46.074Z,18.98
2023-01-01T03:33:19.010Z,20.50
2023-01-01T03:35:51.797Z,20.33
2023-01-01T03:38:23.217Z,19.88
2023-01-01T03:40:55.764Z,19.75
2023-01-01T03:43:37.008Z,19.80
2023-01-01T03:46:09.221Z,18.73
2023-01-01T03:49:02.576Z,18.92
2023-01-01T03:51:44.650Z,16.92
2023-01-01T03:54:22.288Z,17.10
2023-01-01T03:56:58.770Z,16.80
2023-01-01T03:59:33.560Z,15.07
2023-01-01T04:02:07.728Z,14.43
2023-01-01T04:04:36.175Z,14.27
2023-01-01T04:07:14.958Z,13.70
2023-01-01T04:09:48.908Z,13.15
2023-01-01T04:12:18.326Z,11.48
2023-01-01T04:14:46.112Z,10.68
2023-01-01T04:17:15.388Z,10.00
2023-01-01T04:19:43.079Z,9.77
2023-01-01T04:22:11.118Z,9.30
2023-01-01T04:24:39.029Z,9.65
2023-01-01T04:27:07.207Z,10.40
2023-01-01T04:29:36.029Z,8.68
2023-01-01T04:32:04.309Z,9.38
2023-01-01T04:34:33.458Z,9.50
2023-01-01T04:37:01.270Z,9.10
2023-01-01T04:39:29.077Z,8.80
2023-01-01T04:41:56.853Z,8.93
2023-01-01T04:44:24.698Z,8.95
2023-01-01T04:46:56.945Z,9.38
2023-01-01T04:49:28.008Z,9.13
2023-01-01T04:51:57.457Z,8.70
2023-01-01T04:54:25.244Z,9.40
2023-01-01T04:56:52.918Z,8.70
2023-01-01T04:59:20.649Z,8.98
2023-01-01T05:01:48.557Z,8.93
2023-01-01T05:04:17.306Z,8.98
2023-01-01T05:06:44.968Z,9.35
2023-01-01T05:09:14.658Z,8.40
2023-01-01T05:11:42.488Z,7.63
2023-01-01T05:14:10.348Z,8.00
2023-01-01T05:16:40.117Z,7.93
2023-01-01T05:19:09.358Z,7.65
2023-01-01T05:21:39.139Z,7.72
2023-01-01T05:24:08.674Z,7.03
2023-01-01T05:26:39.737Z,6.35
2023-01-01T05:29:15.281Z,7.18
2023-01-01T05:31:43.757Z,7.70
2023-01-01T05:34:11.619Z,7.70
2023-01-01T05:36:39.714Z,7.93
2023-01-01T05:39:08.828Z,8.15
2023-01-01T05:41:38.910Z,8.25
2023-01-01T05:44:09.266Z,8.75
2023-01-01T05:46:37.696Z,8.23
2023-01-01T05:49:05.766Z,8.60
2023-01-01T05:54:00.669Z,8.88
2023-01-01T05:56:28.937Z,9.48
2023-01-01T05:58:58.197Z,9.20
2023-01-01T06:01:28.762Z,8.80
2023-01-01T06:03:58.213Z,9.48
2023-01-01T06:06:28.982Z,10.30
2023-01-01T06:08:58.071Z,10.70
2023-01-01T06:11:26.873Z,12.02
2023-01-01T06:13:55.793Z,10.45
2023-01-01T06:16:26.291Z,11.38
2023-01-01T06:18:54.080Z,12.60
2023-01-01T06:21:23.688Z,12.63
2023-01-01T06:23:51.527Z,12.68
2023-01-01T06:26:21.815Z,12.30
2023-01-01T06:28:50.789Z,11.57
2023-01-01T06:31:20.276Z,12.00
2023-01-01T06:33:50.992Z,11.90
2023-01-01T06:36:21.653Z,12.18
2023-01-01T06:38:51.309Z,11.77
2023-01-01T06:41:20.939Z,11.25
2023-01-01T06:43:49.311Z,11.73
2023-01-01T06:46:19.541Z,10.30
2023-01-01T06:48:49.978Z,9.90
2023-01-01T06:51:20.781Z,8.60
2023-01-01T06:53:50.005Z,9.98
2023-01-01T06:56:18.793Z,8.80
2023-01-01T06:58:47.152Z,8.55
2023-01-01T07:01:17.339Z,9.07
2023-01-01T07:03:52.635Z,8.50
2023-01-01T07:06:21.285Z,9.40
2023-01-01T07:08:49.659Z,8.38
2023-01-01T07:11:18.639Z,8.30
2023-01-01T07:13:46.961Z,8.10
2023-01-01T07:16:15.493Z,8.32
2023-01-01T07:18:43.900Z,8.30
2023-01-01T07:21:30.650Z,8.65
2023-01-01T07:24:00.500Z,8.10
2023-01-01T07:26:30.128Z,7.38
2023-01-01T07:29:06.369Z,7.43
2023-01-01T07:31:36.944Z,7.45
2023-01-01T07:34:05.342Z,6.35
2023-01-01T07:36:35.237Z,6.00
2023-01-01T07:39:03.598Z,6.65
2023-01-01T07:41:31.818Z,6.70
2023-01-01T07:44:00.819Z,6.80
2023-01-01T07:46:29.451Z,6.10
2023-01-01T07:48:59.548Z,5.47
2023-01-01T07:51:28.094Z,5.68
2023-01-01T07:54:03.983Z,5.32
2023-01-01T07:56:35.560Z,5.70
2023-01-01T07:59:04.009Z,5.22
2023-01-01T08:01:35.282Z,5.03
2023-01-01T08:04:03.780Z,4.68
2023-01-01T08:06:31.984Z,4.78
2023-01-01T08:09:01.812Z,5.53
2023-01-01T08:11:30.076Z,5.28
2023-01-01T08:13:58.381Z,5.25
2023-01-01T08:16:26.926Z,4.53
2023-01-01T08:18:55.173Z,4.45
2023-01-01T08:21:23.519Z,4.85
2023-01-01T08:23:51.729Z,4.72
2023-01-01T08:26:29.753Z,4.65
2023-01-01T08:28:58.862Z,4.95
2023-01-01T08:31:27.175Z,4.82
2023-01-01T08:33:55.533Z,4.35
2023-01-01T08:36:24.745Z,4.30
2023-01-01T08:38:53.009Z,5.00
2023-01-01T08:41:22.909Z,5.15
2023-01-01T08:43:51.255Z,5.03
2023-01-01T08:46:19.600Z,4.47
2023-01-01T08:48:47.921Z,5.30
2023-01-01T08:51:16.280Z,5.85
2023-01-01T08:53:50.584Z,5.90
2023-01-01T08:56:20.724Z,5.20
2023-01-01T08:58:50.799Z,4.80
2023-01-01T09:01:22.456Z,5.25
2023-01-01T09:03:50.814Z,4.90
2023-01-01T09:06:19.075Z,5.10
2023-01-01T09:08:47.487Z,4.47
2023-01-01T09:11:24.238Z,5.25
2023-01-01T09:13:54.413Z,5.25
2023-01-01T09:16:23.734Z,5.03
2023-01-01T09:18:51.910Z,4.85
2023-01-01T09:21:20.304Z,6.10
2023-01-01T09:23:48.589Z,5.78
2023-01-01T09:26:18.453Z,6.30
2023-01-01T09:28:46.767Z,5.15
2023-01-01T09:31:16.513Z,6.00
2023-01-01T09:33:44.786Z,6.57
2023-01-01T09:36:15.007Z,6.82
2023-01-01T09:38:43.295Z,16.42
2023-01-01T09:41:21.965Z,13.15
2023-01-01T09:43:59.814Z,10.10
2023-01-01T09:46:32.038Z,8.68
2023-01-01T09:49:05.617Z,8.05
2023-01-01T09:51:43.243Z,8.25
2023-01-01T09:54:26.304Z,7.28
2023-01-01T09:56:58.607Z,6.60
2023-01-01T09:59:27.283Z,5.35
2023-01-01T10:02:02.950Z,5.43
2023-01-01T10:04:48.914Z,5.45
2023-01-01T10:07:27.137Z,5.15
2023-01-01T10:10:03.235Z,5.03
2023-01-01T10:12:38.132Z,4.22
2023-01-01T10:15:14.816Z,4.78
2023-01-01T10:20:20.856Z,4.70
2023-01-01T10:22:53.891Z,4.65
2023-01-01T10:25:25.171Z,5.07
2023-01-01T10:27:59.708Z,4.30
2023-01-01T10:30:29.973Z,4.95
2023-01-01T10:33:00.424Z,4.82
2023-01-01T10:35:35.774Z,6.05
2023-01-01T10:38:06.135Z,4.13
2023-01-01T10:40:35.087Z,4.35
2023-01-01T10:43:04.521Z,3.35
2023-01-01T10:45:37.165Z,3.92
2023-01-01T10:48:18.770Z,3.45
2023-01-01T10:50:51.380Z,3.25
2023-01-01T10:53:26.124Z,2.85
2023-01-01T10:56:04.433Z,2.97
2023-01-01T10:58:40.649Z,3.15
2023-01-01T11:01:11.923Z,3.00
2023-01-01T11:04:18.552Z,2.97
2023-01-01T11:06:47.974Z,3.20
2023-01-01T11:09:23.389Z,3.20
2023-01-01T11:12:46.128Z,3.40
2023-01-01T11:15:08.350Z,3.85
2023-01-01T11:17:37.905Z,3.22
2023-01-01T11:20:16.964Z,3.22
2023-01-01T11:22:47.464Z,3.40
2023-01-01T11:25:21.650Z,3.97
2023-01-01T11:27:51.023Z,3.75
2023-01-01T11:30:37.671Z,3.95
2023-01-01T11:33:10.866Z,4.10
2023-01-01T11:35:51.136Z,3.78
2023-01-01T11:38:29.916Z,4.90
2023-01-01T11:41:04.836Z,4.00
2023-01-01T11:43:39.443Z,4.53
2023-01-01T11:46:10.791Z,4.07
2023-01-01T11:48:43.376Z,5.03
2023-01-01T11:51:31.059Z,6.28
2023-01-01T11:54:23.034Z,4.80
2023-01-01T11:56:55.429Z,4.13
2023-01-01T11:59:29.178Z,4.30
2023-01-01T12:02:02.611Z,5.75
2023-01-01T12:04:35.329Z,4.28
2023-01-01T12:07:07.519Z,4.68
2023-01-01T12:09:43.118Z,3.50
2023-01-01T12:12:16.022Z,3.83
2023-01-01T12:14:51.580Z,3.53
2023-01-01T12:17:24.454Z,4.55
2023-01-01T12:20:00.123Z,4.53
2023-01-01T12:22:29.822Z,3.87
2023-01-01T12:24:58.589Z,4.13
2023-01-01T12:27:42.130Z,4.45
2023-01-01T12:30:19.418Z,4.10
2023-01-01T12:33:36.520Z,4.10
2023-01-01T12:36:16.223Z,7.22
2023-01-01T12:39:36.583Z,8.07
2023-01-01T12:42:14.538Z,8.57
2023-01-01T12:44:52.807Z,9.00
2023-01-01T12:47:35.450Z,17.40
2023-01-01T12:50:12.852Z,8.65
2023-01-01T12:52:55.067Z,7.40
2023-01-01T12:55:57.045Z,5.90
2023-01-01T12:58:31.610Z,5.50
2023-01-01T13:01:01.813Z,7.25
2023-01-01T13:03:33.643Z,6.38
2023-01-01T13:06:12.197Z,7.10
2023-01-01T13:08:42.191Z,7.65
2023-01-01T13:11:13.656Z,6.72
2023-01-01T13:13:42.658Z,7.05
2023-01-01T13:16:13.256Z,6.72
2023-01-01T13:18:41.149Z,6.63
2023-01-01T13:21:22.737Z,6.68
2023-01-01T13:23:52.869Z,6.50
2023-01-01T13:26:36.561Z,6.22
2023-01-01T13:29:44.007Z,5.75
2023-01-01T13:32:13.888Z,5.28
2023-01-01T13:35:16.268Z,5.43
2023-01-01T13:37:48.296Z,5.50
2023-01-01T13:40:53.419Z,4.95
2023-01-01T13:43:32.242Z,4.80
2023-01-01T13:46:13.133Z,5.53
2023-01-01T13:49:11.535Z,147.07
2023-01-01T13:52:08.223Z,18.08
2023-01-01T13:55:21.439Z,7.57
2023-01-01T13:58:16.116Z,7.75
2023-01-01T14:01:01.594Z,9.82
2023-01-01T14:03:40.658Z,8.38
2023-01-01T14:06:12.953Z,7.38
2023-01-01T14:08:41.092Z,7.85
2023-01-01T14:11:20.457Z,5.80
2023-01-01T14:13:48.892Z,5.60
2023-01-01T14:16:18.979Z,5.60
2023-01-01T14:18:49.810Z,5.40
2023-01-01T14:21:20.515Z,5.32
2023-01-01T14:23:52.262Z,8.45
2023-01-01T14:26:23.481Z,17.05
2023-01-01T14:28:56.877Z,15.70
2023-01-01T14:31:30.399Z,13.13
2023-01-01T14:33:58.829Z,9.70
2023-01-01T14:36:31.646Z,6.63
2023-01-01T14:39:03.863Z,8.05
2023-01-01T14:41:34.413Z,25.42
2023-01-01T14:44:07.733Z,21.63
2023-01-01T14:46:41.336Z,24.92
2023-01-01T14:49:11.786Z,22.02
2023-01-01T14:51:45.011Z,11.98
2023-01-01T14:54:19.366Z,10.45
2023-01-01T14:56:49.665Z,13.05
2023-01-01T14:59:24.547Z,10.20
2023-01-01T15:02:02.456Z,9.95
2023-01-01T15:04:30.876Z,10.40
2023-01-01T15:07:00.501Z,10.75
2023-01-01T15:09:29.146Z,13.80
2023-01-01T15:11:58.818Z,13.35
2023-01-01T15:17:27.398Z,8.73
2023-01-01T15:20:03.613Z,9.30
2023-01-01T15:22:33.627Z,9.60
2023-01-01T15:25:02.327Z,8.90
2023-01-01T15:27:32.994Z,10.15
2023-01-01T15:30:01.730Z,11.25
2023-01-01T15:32:34.562Z,9.73
2023-01-01T15:35:04.084Z,10.88
2023-01-01T15:37:36.609Z,11.60
2023-01-01T15:40:31.712Z,10.48
2023-01-01T15:43:22.033Z,10.00
2023-01-01T15:45:55.847Z,9.98
2023-01-01T15:48:31.800Z,10.95
2023-01-01T15:51:16.626Z,10.95
2023-01-01T15:53:55.773Z,10.02
2023-01-01T15:56:26.546Z,10.32
2023-01-01T15:59:02.436Z,10.43
2023-01-01T16:01:37.438Z,10.57
2023-01-01T16:04:11.377Z,9.52
2023-01-01T16:06:45.178Z,9.70
2023-01-01T16:09:14.136Z,10.20
2023-01-01T16:11:42.705Z,8.63
2023-01-01T16:14:11.017Z,8.77
2023-01-01T16:16:40.778Z,10.32
2023-01-01T16:19:17.066Z,12.43
2023-01-01T16:21:45.165Z,13.10
2023-01-01T16:24:14.634Z,10.85
2023-01-01T16:26:42.937Z,12.35
2023-01-01T16:29:10.976Z,11.18
2023-01-01T16:31:40.583Z,10.27
2023-01-01T16:34:21.158Z,10.48
2023-01-01T16:36:49.697Z,10.18
2023-01-01T16:39:18.911Z,13.05
2023-01-01T16:41:46.636Z,11.32
2023-01-01T16:44:15.447Z,10.05
2023-01-01T16:46:43.252Z,11.38
2023-01-01T16:49:10.980Z,14.77
2023-01-01T16:51:43.778Z,14.35
2023-01-01T16:54:19.695Z,16.20
2023-01-01T16:56:48.767Z,13.65
2023-01-01T16:59:16.709Z,12.68
2023-01-01T17:01:45.064Z,14.38
2023-01-01T17:04:13.400Z,14.32
2023-01-01T17:06:42.797Z,15.57
2023-01-01T17:09:10.615Z,14.48
2023-01-01T17:11:40.003Z,16.38
2023-01-01T17:14:07.867Z,15.30
2023-01-01T17:16:39.567Z,16.63
2023-01-01T17:19:15.546Z,15.68
2023-01-01T17:21:47.050Z,15.75
2023-01-01T17:24:14.950Z,15.32
2023-01-01T17:26:42.619Z,15.90
2023-01-01T17:29:10.475Z,15.27
2023-01-01T17:31:38.605Z,15.63
2023-01-01T17:34:06.610Z,15.48
2023-01-01T17:36:34.505Z,14.55
2023-01-01T17:39:03.978Z,14.23
2023-01-01T17:41:31.999Z,15.00
2023-01-01T17:43:59.771Z,14.77
2023-01-01T17:46:33.266Z,14.38
2023-01-01T17:49:02.075Z,13.85
2023-01-01T17:51:30.168Z,13.93
2023-01-01T17:53:58.115Z,15.57
2023-01-01T17:56:27.463Z,14.77
2023-01-01T17:58:55.417Z,14.45
2023-01-01T18:01:31.348Z,15.40
2023-01-01T18:04:01.107Z,14.23
2023-01-01T18:06:29.942Z,15.80
2023-01-01T18:08:59.253Z,16.33
2023-01-01T18:11:29.603Z,15.75
2023-01-01T18:13:57.844Z,15.10
2023-01-01T18:16:26.330Z,15.57
2023-01-01T18:18:56.777Z,14.30
2023-01-01T18:21:24.659Z,15.48
2023-01-01T18:23:55.608Z,13.68
2023-01-01T18:26:24.426Z,14.18
2023-01-01T18:28:54.553Z,14.38
2023-01-01T18:31:54.494Z,14.25
2023-01-01T18:34:22.473Z,14.40
2023-01-01T18:36:50.435Z,14.50
2023-01-01T18:39:27.565Z,16.80
2023-01-01T18:42:21.806Z,16.00
2023-01-01T18:44:52.058Z,14.98
2023-01-01T18:47:20.740Z,14.57
2023-01-01T18:49:56.957Z,14.80
2023-01-01T18:52:27.261Z,13.90
2023-01-01T18:55:07.413Z,15.02
2023-01-01T18:57:36.497Z,14.43
2023-01-01T19:00:18.940Z,16.88
2023-01-01T19:02:53.655Z,16.23
2023-01-01T19:05:25.161Z,17.83
2023-01-01T19:08:02.106Z,17.20
2023-01-01T19:10:35.892Z,16.55
2023-01-01T19:13:21.011Z,17.00
2023-01-01T19:15:53.316Z,17.27
2023-01-01T19:18:23.115Z,22.23
2023-01-01T19:20:56.436Z,19.98
2023-01-01T19:23:24.880Z,17.90
2023-01-01T19:25:54.261Z,18.13
2023-01-01T19:28:36.152Z,16.65
2023-01-01T19:31:06.964Z,15.02
2023-01-01T19:33:35.038Z,14.48
2023-01-01T19:36:02.899Z,16.80
2023-01-01T19:38:31.052Z,15.13
2023-01-01T19:40:59.869Z,15.63
2023-01-01T19:43:28.046Z,14.07
2023-01-01T19:45:56.207Z,13.75
2023-01-01T19:48:25.797Z,13.02
2023-01-01T19:50:53.962Z,11.88
2023-01-01T19:53:21.965Z,12.00
2023-01-01T19:55:50.242Z,11.52
2023-01-01T19:58:20.175Z,13.45
2023-01-01T20:00:48.175Z,13.77
2023-01-01T20:03:52.314Z,10.98
2023-01-01T20:06:08.383Z,12.85
2023-01-01T20:08:38.383Z,14.18
2023-01-01T20:11:07.727Z,14.40
2023-01-01T20:13:36.027Z,15.95
2023-01-01T20:16:04.186Z,16.70
2023-01-01T20:18:32.790Z,17.23
2023-01-01T20:21:32.892Z,17.23
2023-01-01T20:24:03.092Z,15.88
2023-01-01T20:26:31.738Z,17.15
2023-01-01T20:29:18.406Z,15.98
2023-01-01T20:31:57.831Z,14.88
2023-01-01T20:34:26.536Z,15.73
2023-01-01T20:37:14.520Z,14.45
2023-01-01T20:39:47.150Z,14.10
2023-01-01T20:42:15.424Z,14.65
2023-01-01T20:44:43.552Z,12.40
2023-01-01T20:47:12.048Z,12.13
2023-01-01T20:49:40.703Z,12.05
2023-01-01T20:52:08.752Z,11.52
2023-01-01T20:54:36.808Z,13.80
2023-01-01T20:57:06.842Z,13.43
2023-01-01T20:59:37.025Z,11.93
2023-01-01T21:02:07.388Z,12.77
2023-01-01T21:04:39.238Z,12.07
2023-01-01T21:07:09.564Z,14.95
2023-01-01T21:09:38.661Z,12.98
2023-01-01T21:12:09.856Z,13.43
2023-01-01T21:14:38.257Z,13.57
2023-01-01T21:17:19.376Z,13.73
2023-01-01T21:19:47.537Z,16.67
2023-01-01T21:22:23.724Z,14.90
2023-01-01T21:24:54.681Z,14.00
2023-01-01T21:27:34.012Z,12.82
2023-01-01T21:30:02.673Z,13.10
2023-01-01T21:32:38.174Z,12.07
2023-01-01T21:35:19.795Z,11.60
2023-01-01T21:37:52.666Z,11.60
2023-01-01T21:40:39.516Z,11.27
2023-01-01T21:43:24.621Z,9.88
2023-01-01T21:45:54.334Z,9.40
2023-01-01T21:48:28.430Z,9.55
2023-01-01T21:50:57.259Z,9.00
2023-01-01T21:53:29.064Z,9.23
2023-01-01T21:55:59.065Z,9.45
2023-01-01T21:58:52.949Z,8.25
2023-01-01T22:01:26.161Z,9.50
2023-01-01T22:04:00.769Z,9.68
2023-01-01T22:06:35.850Z,8.27
2023-01-01T22:09:14.345Z,7.97
2023-01-01T22:11:42.675Z,7.63
2023-01-01T22:14:14.951Z,8.10
2023-01-01T22:16:44.586Z,8.15
2023-01-01T22:19:17.879Z,7.85
2023-01-01T22:21:47.070Z,7.95
2023-01-01T22:24:36.165Z,7.93
2023-01-01T22:27:26.017Z,7.47
2023-01-01T22:29:56.351Z,7.78
2023-01-01T22:32:26.740Z,8.60
2023-01-01T22:35:06.159Z,8.18
2023-01-01T22:37:38.172Z,8.05
2023-01-01T22:40:24.854Z,7.85
2023-01-01T22:42:53.230Z,7.75
2023-01-01T22:45:23.053Z,6.90
2023-01-01T22:47:51.605Z,7.85
2023-01-01T22:50:23.396Z,8.68
2023-01-01T22:52:51.922Z,8.07
2023-01-01T22:55:20.415Z,7.63
2023-01-01T22:57:48.567Z,7.82
2023-01-01T23:00:18.636Z,8.75
2023-01-01T23:02:48.397Z,7.80
2023-01-01T23:05:16.531Z,8.52
2023-01-01T23:07:45.079Z,8.25
2023-01-01T23:10:15.329Z,8.10
2023-01-01T23:12:43.439Z,8.45
2023-01-01T23:15:30.677Z,8.63
2023-01-01T23:18:00.838Z,8.27
2023-01-01T23:20:30.495Z,9.88
2023-01-01T23:22:58.608Z,8.80
2023-01-01T23:25:29.130Z,8.63
2023-01-01T23:27:57.452Z,8.63
2023-01-01T23:30:25.747Z,8.80
2023-01-01T23:32:53.913Z,8.27
2023-01-01T23:35:23.653Z,8.05
2023-01-01T23:37:51.780Z,7.60
2023-01-01T23:40:19.823Z,8.20
2023-01-01T23:42:47.879Z,8.38
2023-01-01T23:45:15.899Z,7.50
2023-01-01T23:47:44.419Z,7.90
2023-01-01T23:50:12.643Z,7.90
2023-01-01T23:52:42.398Z,7.85
2023-01-01T23:55:10.700Z,8.30
2023-01-01T23:57:43.961Z,8.32
